Time;durP1;ratioP1;P1;durP2;ratioP2;P2;SDS_P1;SDS_P2;PMS_P1;PMS_P2;Temp;Humidity;BMP_temperature;BMP_pressure;BME280_temperature;BME280_humidity;BME280_pressure;Samples;Min_cycle;Max_cycle;Signal;HPM_P1;HPM_P2
2021/07/28 00:02:08;;;;;;;10.20;7.43;;;;;;;17.97;73.84;98628.97;3588140;40;20048;-64
2021/07/28 00:04:37;;;;;;;7.63;6.82;;;;;;;17.92;74.17;98612.84;3587196;40;20049;-63
2021/07/28 00:07:06;;;;;;;14.98;8.32;;;;;;;17.90;74.07;98616.81;3588276;40;20097;-64
2021/07/28 00:09:34;;;;;;;11.95;8.45;;;;;;;17.83;74.62;98612.41;3587891;40;20048;-64
2021/07/28 00:12:03;;;;;;;11.32;7.72;;;;;;;17.80;74.63;98620.16;3587284;40;20076;-64
2021/07/28 00:14:31;;;;;;;10.73;8.52;;;;;;;17.78;74.43;98620.38;3588058;40;20040;-64
2021/07/28 00:17:00;;;;;;;9.98;8.15;;;;;;;17.71;74.77;98619.69;3588094;40;20088;-64
2021/07/28 00:19:31;;;;;;;8.88;7.97;;;;;;;17.71;75.06;98618.88;3587899;40;20318;-64
2021/07/28 00:24:44;;;;;;;8.40;7.57;;;;;;;17.62;75.52;98623.00;3588164;40;20048;-64
2021/07/28 00:27:13;;;;;;;12.75;7.97;;;;;;;17.55;75.41;98621.31;3588664;40;20075;-63
2021/07/28 00:29:41;;;;;;;10.00;7.90;;;;;;;17.56;75.29;98627.47;3586555;40;20055;-64
2021/07/28 00:32:08;;;;;;;8.82;7.90;;;;;;;17.51;75.61;98628.22;3589039;40;20060;-63
2021/07/28 00:34:36;;;;;;;8.27;7.18;;;;;;;17.53;75.63;98633.31;3590512;40;20411;-63
2021/07/28 00:37:05;;;;;;;8.20;7.40;;;;;;;17.56;75.09;98624.81;3589687;40;20099;-63
2021/07/28 00:39:32;;;;;;;9.57;7.40;;;;;;;17.55;75.12;98624.00;3588584;40;20068;-63
2021/07/28 00:42:02;;;;;;;11.07;8.18;;;;;;;17.49;75.22;98629.50;3618631;22;20338;-65
2021/07/28 00:44:34;;;;;;;9.27;7.82;;;;;;;17.43;75.59;98628.59;3579418;40;20086;-65
2021/07/28 00:47:01;;;;;;;8.65;7.18;;;;;;;17.41;75.23;98619.19;3578384;40;20053;-67
2021/07/28 00:49:30;;;;;;;8.52;7.63;;;;;;;17.39;75.30;98614.09;3579220;40;20048;-66
2021/07/28 00:52:02;;;;;;;8.82;7.75;;;;;;;17.41;75.53;98616.53;3579387;40;20049;-65
2021/07/28 00:54:31;;;;;;;9.35;8.00;;;;;;;17.36;75.74;98617.25;3579363;40;20056;-64
2021/07/28 00:56:59;;;;;;;10.55;8.18;;;;;;;17.37;75.41;98616.19;3579508;40;20078;-66
2021/07/28 00:59:27;;;;;;;10.52;7.43;;;;;;;17.34;75.54;98614.00;3578128;40;20049;-65
2021/07/28 01:01:57;;;;;;;10.05;7.88;;;;;;;17.32;75.58;98613.44;3578067;40;20114;-65
2021/07/28 01:04:26;;;;;;;11.55;8.00;;;;;;;17.31;75.64;98609.97;3579855;40;20056;-67
2021/07/28 01:06:54;;;;;;;10.55;8.35;;;;;;;17.33;75.39;98610.50;3578673;40;20044;-65
2021/07/28 01:09:28;;;;;;;9.25;8.25;;;;;;;17.31;75.70;98603.81;3579736;40;20053;-66
2021/07/28 01:11:58;;;;;;;10.60;8.38;;;;;;;17.32;75.69;98594.75;3579785;40;20048;-66
2021/07/28 01:14:26;;;;;;;10.52;8.05;;;;;;;17.31;75.75;98598.47;3579473;40;20052;-67
2021/07/28 01:16:56;;;;;;;10.15;7.82;;;;;;;17.27;75.92;98595.47;3579570;40;20051;-66
2021/07/28 01:19:31;;;;;;;10.82;8.27;;;;;;;17.22;76.10;98589.19;3578974;40;20044;-65
2021/07/28 01:22:01;;;;;;;9.77;8.23;;;;;;;17.19;75.93;98585.16;3579137;40;20037;-66
2021/07/28 01:24:31;;;;;;;12.73;9.15;;;;;;;17.13;75.83;98586.13;3579355;40;20052;-65
2021/07/28 01:27:04;;;;;;;11.40;8.27;;;;;;;17.10;76.38;98589.25;3579291;40;20059;-66
2021/07/28 01:29:36;;;;;;;10.25;8.35;;;;;;;17.17;76.22;98592.59;3579058;40;20056;-66
2021/07/28 01:32:04;;;;;;;15.70;9.82;;;;;;;17.25;76.07;98594.06;3579407;40;20056;-64
2021/07/28 01:34:34;;;;;;;11.77;9.25;;;;;;;17.26;75.89;98595.69;3578451;40;20112;-66
2021/07/28 01:37:07;;;;;;;11.88;8.70;;;;;;;17.24;75.56;98593.25;3579434;40;20037;-66
2021/07/28 01:39:37;;;;;;;12.18;8.60;;;;;;;17.21;76.10;98590.25;3579928;40;20040;-65
2021/07/28 01:42:06;;;;;;;8.25;7.45;;;;;;;17.19;75.94;98590.50;3579636;40;20049;-66
2021/07/28 01:44:38;;;;;;;9.65;8.50;;;;;;;17.21;75.74;98593.75;3584245;40;20044;-67
2021/07/28 01:47:06;;;;;;;14.48;8.32;;;;;;;17.15;75.82;98589.38;3580868;40;20044;-65
2021/07/28 01:49:33;;;;;;;10.98;7.78;;;;;;;17.20;75.65;98589.47;3578082;40;20048;-66
2021/07/28 01:52:01;;;;;;;11.45;8.25;;;;;;;17.24;76.02;98592.47;3579056;40;20045;-66
2021/07/28 01:54:29;;;;;;;12.43;8.57;;;;;;;17.25;75.64;98592.22;3579373;40;20051;-65
2021/07/28 01:57:04;;;;;;;;;;;;;;;17.27;75.54;98595.47;3579360;40;20044;-66
2021/07/28 01:59:38;;;;;;;10.20;7.40;;;;;;;17.29;75.45;98600.56;3579183;40;19932;-66
2021/07/28 02:02:08;;;;;;;10.68;8.48;;;;;;;17.29;75.78;98597.88;3579663;40;20041;-65
2021/07/28 02:04:36;;;;;;;8.88;7.72;;;;;;;17.26;75.49;98593.81;3582946;40;20045;-66
2021/07/28 02:07:05;;;;;;;11.43;8.52;;;;;;;17.24;75.78;98592.47;3582914;40;20053;-65
2021/07/28 02:09:33;;;;;;;14.88;8.57;;;;;;;17.20;75.73;98600.13;3582139;40;20053;-66
2021/07/28 02:12:02;;;;;;;13.95;9.02;;;;;;;17.18;75.25;98604.09;3580199;40;20048;-65
2021/07/28 02:14:31;;;;;;;11.25;8.77;;;;;;;17.11;75.26;98603.44;3578462;40;20067;-65
2021/07/28 02:17:01;;;;;;;13.07;8.38;;;;;;;17.08;75.24;98594.03;3578829;40;20055;-67
2021/07/28 02:19:28;;;;;;;12.68;8.32;;;;;;;17.07;75.46;98593.25;3579143;40;20044;-66
2021/07/28 02:21:56;;;;;;;10.98;8.45;;;;;;;17.07;75.23;98590.56;3580619;40;20088;-66
2021/07/28 02:24:24;;;;;;;13.25;8.73;;;;;;;17.04;75.51;98580.34;3583372;40;20406;-65
2021/07/28 02:26:52;;;;;;;9.90;8.48;;;;;;;17.03;75.14;98592.09;3581972;40;20367;-65
2021/07/28 02:29:19;;;;;;;10.98;8.55;;;;;;;16.98;75.03;98588.50;3581933;40;20045;-65
2021/07/28 02:31:48;;;;;;;10.77;8.07;;;;;;;17.02;75.07;98589.66;3578936;40;20056;-66
2021/07/28 02:34:19;;;;;;;11.35;7.88;;;;;;;17.01;75.08;98586.16;3579877;40;20044;-65
2021/07/28 02:36:46;;;;;;;13.18;7.50;;;;;;;16.99;74.87;98588.28;3579961;40;20093;-66
2021/07/28 02:39:17;;;;;;;9.50;8.32;;;;;;;16.92;74.85;98595.63;3579698;40;20420;-65
2021/07/28 02:41:45;;;;;;;13.32;8.50;;;;;;;16.91;75.34;98595.88;3579439;40;20041;-66
2021/07/28 02:44:17;;;;;;;10.27;7.88;;;;;;;16.93;75.48;98594.56;3580458;40;20045;-66
2021/07/28 02:46:45;;;;;;;11.10;8.25;;;;;;;16.86;75.53;98604.59;3579424;40;20060;-65
2021/07/28 02:49:15;;;;;;;12.70;8.65;;;;;;;16.87;75.11;98600.88;3579986;40;20048;-65
2021/07/28 02:51:45;;;;;;;10.88;8.27;;;;;;;16.88;75.42;98599.81;3578515;40;20077;-64
2021/07/28 02:54:12;;;;;;;11.80;7.80;;;;;;;16.79;75.67;98594.03;3577749;40;20551;-65
2021/07/28 02:56:40;;;;;;;11.18;8.70;;;;;;;16.76;75.57;98591.84;3579488;40;20140;-64
2021/07/28 02:59:08;;;;;;;13.20;8.57;;;;;;;16.78;75.42;98591.63;3579374;40;20041;-64
2021/07/28 03:01:36;;;;;;;13.77;8.32;;;;;;;16.79;75.26;98594.03;3579356;40;20089;-64
2021/07/28 03:04:04;;;;;;;12.52;7.75;;;;;;;16.78;75.27;98600.44;3578213;40;20048;-64
2021/07/28 03:06:33;;;;;;;9.65;7.72;;;;;;;16.77;75.11;98606.81;3578710;40;20524;-64
2021/07/28 03:09:01;;;;;;;10.15;7.82;;;;;;;16.79;75.15;98601.25;3578330;40;20048;-65
2021/07/28 03:11:29;;;;;;;9.98;7.65;;;;;;;16.76;75.11;98599.84;3578265;40;20044;-64
2021/07/28 03:13:57;;;;;;;10.90;7.47;;;;;;;16.80;75.32;98601.00;3578792;40;20044;-64
2021/07/28 03:16:26;;;;;;;10.10;7.63;;;;;;;16.81;75.03;98599.13;3577741;40;20060;-65
2021/07/28 03:18:53;;;;;;;9.75;7.50;;;;;;;16.79;74.91;98601.25;3577203;40;20383;-64
2021/07/28 03:21:21;;;;;;;12.10;8.40;;;;;;;16.76;74.97;98601.72;3577554;40;20587;-65
2021/07/28 03:23:51;;;;;;;10.70;7.85;;;;;;;16.80;74.90;98601.00;3578609;40;20101;-64
2021/07/28 03:26:18;;;;;;;10.25;8.23;;;;;;;16.77;74.57;98598.78;3580259;40;20045;-65
2021/07/28 03:28:46;;;;;;;11.27;7.22;;;;;;;16.72;74.57;98590.66;3580699;40;20040;-65
2021/07/28 03:31:14;;;;;;;11.32;8.02;;;;;;;16.75;74.99;98594.75;3580318;40;20356;-64
2021/07/28 03:33:42;;;;;;;9.73;8.13;;;;;;;16.74;74.97;98595.81;3580910;40;20053;-64
2021/07/28 03:36:09;;;;;;;12.38;7.55;;;;;;;16.74;75.08;98606.50;3580661;40;20398;-65
2021/07/28 03:38:37;;;;;;;12.90;7.93;;;;;;;16.72;74.94;98596.00;3579734;40;20048;-64
2021/07/28 03:41:07;;;;;;;12.05;8.20;;;;;;;16.73;74.61;98602.19;3579640;40;20075;-64
2021/07/28 03:43:34;;;;;;;11.93;8.02;;;;;;;16.74;75.07;98590.47;3580809;40;20449;-65
2021/07/28 03:46:02;;;;;;;11.65;7.78;;;;;;;16.69;75.05;98593.81;3580523;40;20064;-65
2021/07/28 03:48:31;;;;;;;10.48;7.65;;;;;;;16.70;74.76;98600.78;3580417;40;20056;-65
2021/07/28 03:50:59;;;;;;;9.82;7.88;;;;;;;16.71;74.84;98591.72;3579714;40;20041;-65
2021/07/28 03:53:27;;;;;;;15.43;8.40;;;;;;;16.72;74.62;98585.34;3580386;40;20060;-65
2021/07/28 03:55:55;;;;;;;10.63;7.72;;;;;;;16.74;75.01;98583.28;3580232;40;20053;-65
2021/07/28 03:58:24;;;;;;;11.15;7.50;;;;;;;16.74;74.62;98587.81;3579043;40;20056;-65
2021/07/28 04:00:52;;;;;;;10.68;7.15;;;;;;;16.72;74.75;98585.34;3577284;40;20057;-65
2021/07/28 04:03:20;;;;;;;11.93;8.38;;;;;;;16.78;74.74;98589.75;3578333;40;20049;-66
2021/07/28 04:05:53;;;;;;;13.35;8.13;;;;;;;16.80;74.30;98593.00;3578709;40;20053;-64
2021/07/28 04:08:21;;;;;;;11.20;9.13;;;;;;;16.83;74.52;98595.19;3580053;40;20049;-63
2021/07/28 04:10:49;;;;;;;9.43;7.90;;;;;;;16.86;74.57;98590.41;3579920;40;20271;-64
2021/07/28 04:13:17;;;;;;;9.95;7.78;;;;;;;16.87;74.31;98581.38;3578852;40;20541;-64
2021/07/28 04:15:46;;;;;;;14.27;7.90;;;;;;;16.83;74.62;98581.03;3580271;40;20059;-64
2021/07/28 04:18:14;;;;;;;10.57;8.00;;;;;;;16.86;74.52;98574.41;3578396;40;20079;-65
2021/07/28 04:20:42;;;;;;;10.98;8.10;;;;;;;16.89;74.34;98579.25;3579735;40;20055;-64
2021/07/28 04:23:09;;;;;;;10.02;7.38;;;;;;;16.93;74.80;98577.75;3579628;40;20413;-65
2021/07/28 04:25:39;;;;;;;11.55;7.85;;;;;;;17.01;74.54;98583.50;3579765;40;20081;-65
2021/07/28 04:28:07;;;;;;;10.93;7.43;;;;;;;17.07;74.61;98573.75;3579492;40;20081;-64
2021/07/28 04:30:35;;;;;;;11.27;7.93;;;;;;;17.02;74.50;98577.13;3580626;40;20130;-64
2021/07/28 04:33:04;;;;;;;9.25;7.65;;;;;;;16.98;74.49;98577.81;3580143;40;20053;-64
2021/07/28 04:35:32;;;;;;;11.05;7.78;;;;;;;17.05;74.52;98573.97;3579631;40;20347;-63
2021/07/28 04:38:00;;;;;;;10.43;7.35;;;;;;;17.07;74.53;98577.22;3579645;40;20067;-64
2021/07/28 04:40:27;;;;;;;10.88;8.52;;;;;;;17.07;74.61;98581.75;3579288;40;20084;-64
2021/07/28 04:42:55;;;;;;;8.98;7.45;;;;;;;17.16;74.34;98574.16;3579771;40;20081;-64
2021/07/28 04:45:23;;;;;;;11.80;8.05;;;;;;;17.18;74.21;98577.38;3579577;40;20061;-63
2021/07/28 04:47:51;;;;;;;9.02;7.80;;;;;;;17.25;74.26;98586.06;3578571;40;20126;-65
2021/07/28 04:50:20;;;;;;;11.35;8.23;;;;;;;17.31;74.60;98582.44;3580121;40;20314;-64
2021/07/28 04:52:48;;;;;;;13.52;8.52;;;;;;;17.33;73.89;98585.66;3580423;40;20130;-66
2021/07/28 04:55:16;;;;;;;8.40;7.38;;;;;;;17.36;73.96;98584.38;3579451;40;20456;-65
2021/07/28 04:57:44;;;;;;;11.65;8.10;;;;;;;17.37;74.39;98580.66;3579582;40;20080;-64
2021/07/28 05:00:12;;;;;;;11.18;8.07;;;;;;;17.43;74.25;98587.69;3579893;40;20282;-64
2021/07/28 05:02:40;;;;;;;9.20;7.70;;;;;;;17.44;74.31;98583.97;3578447;40;20094;-65
2021/07/28 05:05:09;;;;;;;12.23;8.68;;;;;;;17.47;73.84;98588.81;3579558;40;20044;-65
2021/07/28 05:07:38;;;;;;;11.52;8.00;;;;;;;17.52;74.13;98589.72;3580518;40;20036;-65
2021/07/28 05:10:07;;;;;;;8.98;7.40;;;;;;;17.61;73.72;98592.00;3579212;40;20049;-65
2021/07/28 05:12:35;;;;;;;11.85;8.10;;;;;;;17.59;73.87;98594.91;3580279;40;20107;-65
2021/07/28 05:15:03;;;;;;;9.73;7.72;;;;;;;17.62;73.31;98594.41;3579469;40;20430;-65
2021/07/28 05:17:30;;;;;;;12.85;8.10;;;;;;;17.59;73.82;98594.91;3580288;40;20048;-65
2021/07/28 05:19:59;;;;;;;11.25;8.20;;;;;;;17.61;73.40;98598.16;3579046;40;20057;-65
2021/07/28 05:22:26;;;;;;;8.57;7.57;;;;;;;17.63;73.69;98593.34;3580143;40;20057;-65
2021/07/28 05:24:55;;;;;;;8.35;7.43;;;;;;;17.61;73.82;98592.81;3580086;40;20088;-65
2021/07/28 05:27:23;;;;;;;11.63;7.95;;;;;;;17.57;73.49;98599.69;3580063;40;20048;-65
2021/07/28 05:29:52;;;;;;;11.02;7.80;;;;;;;17.53;73.49;98598.56;3579219;40;20333;-65
2021/07/28 05:32:21;;;;;;;9.85;8.40;;;;;;;17.55;73.73;98601.78;3579085;40;20354;-65
2021/07/28 05:34:49;;;;;;;9.98;7.88;;;;;;;17.56;73.89;98600.75;3579102;40;20045;-65
2021/07/28 05:37:17;;;;;;;11.75;8.20;;;;;;;17.58;73.45;98593.28;3578193;40;20347;-65
2021/07/28 05:39:44;;;;;;;9.65;7.53;;;;;;;17.61;73.45;98595.47;3578887;40;20045;-65
2021/07/28 05:42:14;;;;;;;12.45;8.13;;;;;;;17.57;73.67;98605.03;3578158;40;20060;-66
2021/07/28 05:44:42;;;;;;;9.50;7.60;;;;;;;17.55;73.60;98604.44;3578100;40;20122;-65
2021/07/28 05:47:10;;;;;;;11.88;8.63;;;;;;;17.53;73.38;98614.59;3577923;40;20112;-66
2021/07/28 05:49:38;;;;;;;8.93;8.00;;;;;;;17.54;73.74;98613.53;3578743;40;20134;-65
2021/07/28 05:52:07;;;;;;;13.27;8.23;;;;;;;17.58;73.41;98609.31;3579046;40;20052;-65
2021/07/28 05:54:34;;;;;;;15.25;8.75;;;;;;;17.69;73.29;98616.47;3578015;40;20189;-65
2021/07/28 05:57:02;;;;;;;10.10;8.75;;;;;;;17.74;73.22;98613.88;3579051;40;20060;-65
2021/07/28 05:59:31;;;;;;;9.77;8.10;;;;;;;17.75;72.82;98618.19;3578796;40;20379;-66
2021/07/28 06:01:59;;;;;;;12.00;7.72;;;;;;;17.77;73.46;98609.94;3578974;40;20395;-65
2021/07/28 06:04:27;;;;;;;10.00;8.77;;;;;;;17.83;73.53;98617.78;3578774;40;20052;-65
2021/07/28 06:06:54;;;;;;;9.18;7.68;;;;;;;17.83;73.62;98616.97;3578971;40;20049;-65
2021/07/28 06:09:22;;;;;;;9.05;7.53;;;;;;;17.88;73.48;98616.22;3578665;40;20089;-65
2021/07/28 06:11:50;;;;;;;11.70;8.60;;;;;;;17.88;73.41;98618.91;3578829;40;20044;-65
2021/07/28 06:14:18;;;;;;;11.15;7.88;;;;;;;17.90;73.79;98619.47;3578927;40;20072;-64
2021/07/28 06:16:47;;;;;;;10.68;8.13;;;;;;;17.96;73.97;98621.16;3579199;40;20424;-65
2021/07/28 06:19:18;;;;;;;11.93;8.73;;;;;;;17.98;73.80;98616.41;3578841;40;20089;-64
2021/07/28 06:21:45;;;;;;;10.00;8.00;;;;;;;18.04;73.51;98612.72;3578969;40;20040;-64
2021/07/28 06:24:13;;;;;;;10.90;8.48;;;;;;;18.13;73.54;98615.81;3579031;40;20394;-64
2021/07/28 06:26:41;;;;;;;9.88;7.95;;;;;;;18.16;73.50;98623.31;3579140;40;20049;-65
2021/07/28 06:29:10;;;;;;;12.90;8.70;;;;;;;18.21;72.76;98629.59;3578026;40;20051;-63
2021/07/28 06:31:38;;;;;;;11.77;8.43;;;;;;;18.12;72.83;98627.56;3578710;40;20053;-63
2021/07/28 06:34:07;;;;;;;11.88;8.35;;;;;;;18.17;73.39;98624.97;3578764;40;20424;-64
2021/07/28 06:36:36;;;;;;;7.97;7.03;;;;;;;18.25;72.79;98622.69;3578706;40;20051;-63
2021/07/28 06:39:04;;;;;;;10.45;7.95;;;;;;;18.33;72.83;98616.09;3578713;40;20045;-64
2021/07/28 06:41:31;;;;;;;11.63;8.23;;;;;;;18.46;72.44;98614.91;3613595;22;20055;-64
2021/07/28 06:43:59;;;;;;;8.68;7.78;;;;;;;18.53;72.08;98616.38;3578817;40;20142;-64
2021/07/28 06:46:27;;;;;;;11.05;7.90;;;;;;;18.60;71.87;98615.34;3578656;40;20092;-64
2021/07/28 06:48:54;;;;;;;9.95;7.45;;;;;;;18.58;71.70;98614.81;3578508;40;20049;-64
2021/07/28 06:51:24;;;;;;;11.93;8.00;;;;;;;18.69;71.63;98616.53;3578603;40;20052;-64
2021/07/28 06:53:51;;;;;;;11.70;7.40;;;;;;;18.73;71.29;98623.03;3578691;40;20076;-64
2021/07/28 06:56:19;;;;;;;11.05;8.52;;;;;;;18.71;71.60;98628.66;3578716;40;20056;-64
2021/07/28 06:58:47;;;;;;;12.45;8.15;;;;;;;18.79;71.60;98624.72;3578365;40;20307;-64
2021/07/28 07:01:14;;;;;;;8.93;8.05;;;;;;;18.81;71.42;98627.94;3578678;40;20071;-64
2021/07/28 07:03:43;;;;;;;8.25;7.32;;;;;;;18.87;70.89;98618.94;3578625;40;20056;-64
2021/07/28 07:06:26;;;;;;;10.70;7.70;;;;;;;18.98;70.73;98618.00;3578872;40;20085;-64
2021/07/28 07:08:54;;;;;;;13.18;8.00;;;;;;;19.10;70.58;98609.78;3578278;40;20344;-64
2021/07/28 07:11:22;;;;;;;8.93;7.78;;;;;;;19.17;70.44;98614.94;3578739;40;20037;-64
2021/07/28 07:13:50;;;;;;;10.25;7.47;;;;;;;19.19;69.83;98616.31;3578544;40;20527;-64
2021/07/28 07:16:18;;;;;;;9.40;7.25;;;;;;;19.27;70.03;98626.59;3578714;40;20041;-64
2021/07/28 07:18:47;;;;;;;10.90;7.18;;;;;;;19.37;70.14;98627.75;3577186;40;20392;-64
2021/07/28 07:21:14;;;;;;;10.48;8.30;;;;;;;19.42;69.81;98623.22;3578460;40;20419;-64
2021/07/28 07:23:44;;;;;;;8.55;7.20;;;;;;;19.53;69.56;98616.91;3578413;40;20056;-64
2021/07/28 07:26:11;;;;;;;10.73;7.20;;;;;;;19.67;69.10;98609.25;3578387;40;20044;-64
2021/07/28 07:28:39;;;;;;;8.73;7.38;;;;;;;19.81;68.79;98611.53;3578129;40;20052;-64
2021/07/28 07:31:09;;;;;;;8.98;7.05;;;;;;;19.91;68.59;98609.69;3578196;40;20041;-64
2021/07/28 07:33:39;;;;;;;8.23;6.90;;;;;;;19.96;68.33;98616.97;3578651;40;20149;-64
2021/07/28 07:36:08;;;;;;;9.02;6.35;;;;;;;20.01;67.89;98612.47;3578622;40;20048;-64
2021/07/28 07:38:36;;;;;;;7.72;6.70;;;;;;;20.07;67.75;98607.13;3578280;40;20422;-64
2021/07/28 07:41:05;;;;;;;7.97;6.70;;;;;;;20.09;67.49;98603.13;3579412;40;20041;-65
2021/07/28 07:43:34;;;;;;;9.02;6.93;;;;;;;20.16;67.01;98598.31;3579140;40;20049;-65
2021/07/28 07:46:02;;;;;;;8.93;6.75;;;;;;;20.23;66.86;98590.03;3580351;40;20055;-64
2021/07/28 07:48:30;;;;;;;7.60;6.50;;;;;;;20.31;66.88;98599.50;3579791;40;20062;-65
2021/07/28 07:50:58;;;;;;;7.80;6.28;;;;;;;20.22;66.08;98602.66;3580205;40;20052;-64
2021/07/28 07:53:26;;;;;;;9.13;6.50;;;;;;;20.14;66.37;98596.97;3580419;40;20053;-64
2021/07/28 07:55:55;;;;;;;7.25;6.18;;;;;;;20.15;66.49;98603.97;3583821;40;20079;-64
2021/07/28 07:58:24;;;;;;;10.10;6.50;;;;;;;20.25;66.24;98604.03;3584126;40;20058;-65
2021/07/28 08:00:52;;;;;;;9.15;6.20;;;;;;;20.34;65.83;98597.09;3584091;40;20044;-65
2021/07/28 08:03:20;;;;;;;7.65;6.47;;;;;;;20.33;65.66;98600.84;3583520;40;20081;-64
2021/07/28 08:05:48;;;;;;;7.10;6.40;;;;;;;20.39;65.38;98607.03;3584191;40;20049;-64
2021/07/28 08:08:15;;;;;;;6.88;6.18;;;;;;;20.45;64.99;98598.75;3584237;40;20080;-65
2021/07/28 08:10:43;;;;;;;9.82;6.78;;;;;;;20.49;65.26;98593.69;3583374;40;20060;-64
2021/07/28 08:13:11;;;;;;;8.27;6.38;;;;;;;20.55;65.15;98586.47;3584249;40;20056;-64
2021/07/28 08:15:40;;;;;;;9.27;6.68;;;;;;;20.67;64.69;98590.53;3583538;40;20075;-64
2021/07/28 08:18:09;;;;;;;8.60;6.35;;;;;;;20.81;63.98;98585.47;3583245;40;20025;-64
2021/07/28 08:20:38;;;;;;;8.50;5.90;;;;;;;20.86;63.25;98582.00;3583954;40;20055;-64
2021/07/28 08:23:06;;;;;;;8.75;6.80;;;;;;;20.85;63.29;98591.94;3583944;40;20053;-64
2021/07/28 08:25:34;;;;;;;7.65;6.38;;;;;;;20.88;63.33;98587.94;3582589;40;20322;-64
2021/07/28 08:28:02;;;;;;;7.78;6.43;;;;;;;20.83;63.34;98587.91;3583482;40;20450;-64
2021/07/28 08:30:30;;;;;;;10.50;7.30;;;;;;;20.91;63.50;98584.72;3583726;40;20040;-65
2021/07/28 08:32:59;;;;;;;8.70;6.63;;;;;;;21.12;63.45;98590.94;3583782;40;20053;-65
2021/07/28 08:35:26;;;;;;;8.55;6.15;;;;;;;21.19;63.28;98591.50;3583995;40;20134;-65
2021/07/28 08:37:54;;;;;;;8.27;5.93;;;;;;;21.33;63.13;98589.91;3584979;40;20088;-65
2021/07/28 08:40:22;;;;;;;7.47;6.55;;;;;;;21.44;62.94;98591.53;3584689;40;20053;-65
2021/07/28 08:42:50;;;;;;;7.45;6.28;;;;;;;21.41;62.72;98593.97;3584893;40;20049;-65
2021/07/28 08:45:19;;;;;;;8.52;7.13;;;;;;;21.33;62.66;98599.88;3584849;40;20049;-65
2021/07/28 08:47:47;;;;;;;10.27;6.53;;;;;;;21.18;62.79;98593.34;3585184;40;20085;-65
2021/07/28 08:50:16;;;;;;;7.10;6.38;;;;;;;21.13;62.55;98604.09;3584599;40;20049;-65
2021/07/28 08:52:44;;;;;;;8.50;6.35;;;;;;;21.38;62.16;98594.47;3584784;40;20049;-65
2021/07/28 08:55:12;;;;;;;9.77;6.40;;;;;;;21.72;61.85;98597.47;3584838;40;20052;-65
2021/07/28 08:57:40;;;;;;;9.15;6.57;;;;;;;21.95;60.85;98598.75;3583965;40;20051;-65
2021/07/28 09:00:09;;;;;;;6.63;5.85;;;;;;;22.10;60.21;98603.31;3583995;40;20036;-65
2021/07/28 09:02:37;;;;;;;8.10;6.30;;;;;;;22.03;59.38;98595.53;3585092;40;20056;-65
2021/07/28 09:05:06;;;;;;;9.23;5.97;;;;;;;22.14;59.48;98599.84;3586587;40;20048;-65
2021/07/28 09:07:40;;;;;;;8.60;6.40;;;;;;;22.45;59.05;98594.34;3585454;40;20057;-65
2021/07/28 09:10:13;;;;;;;8.07;6.28;;;;;;;22.48;58.48;98583.84;3584803;40;20052;-65
2021/07/28 09:12:44;;;;;;;7.40;5.90;;;;;;;22.48;58.34;98574.94;3584745;40;20060;-65
2021/07/28 09:15:15;;;;;;;6.25;5.65;;;;;;;22.28;58.90;98585.81;3584730;40;20085;-65
2021/07/28 09:17:48;;;;;;;8.32;6.15;;;;;;;22.11;59.53;98578.81;3584509;40;20049;-65
2021/07/28 09:20:24;;;;;;;7.78;6.70;;;;;;;21.92;59.85;98581.28;3584004;40;20056;-65
2021/07/28 09:22:53;;;;;;;8.60;6.85;;;;;;;22.20;59.74;98585.28;3584205;40;20097;-65
2021/07/28 09:25:28;;;;;;;7.93;6.07;;;;;;;22.21;59.63;98588.81;3581529;40;20065;-65
2021/07/28 09:27:56;;;;;;;7.25;6.55;;;;;;;22.09;60.07;98583.69;3581226;40;20326;-65
2021/07/28 09:30:33;;;;;;;8.55;6.53;;;;;;;21.96;61.79;98592.28;3580843;40;20075;-64
2021/07/28 09:33:04;;;;;;;7.88;6.47;;;;;;;21.85;62.25;98591.53;3581233;40;20053;-65
2021/07/28 09:36:09;;;;;;;9.35;6.90;;;;;;;22.01;62.18;98589.63;3580715;40;20049;-65
2021/07/28 09:38:43;;;;;;;10.15;6.22;;;;;;;21.92;61.34;98592.06;3580762;40;20052;-65
2021/07/28 09:41:12;;;;;;;9.68;5.70;;;;;;;21.98;61.22;98600.91;3580321;40;20052;-65
2021/07/28 09:43:47;;;;;;;7.80;5.55;;;;;;;22.02;60.77;98604.69;3580495;40;20044;-66
2021/07/28 09:46:25;;;;;;;10.13;6.05;;;;;;;22.11;60.61;98599.53;3580578;40;20055;-65
2021/07/28 09:48:54;;;;;;;7.65;5.97;;;;;;;22.13;60.34;98616.28;3581804;40;20136;-64
2021/07/28 09:51:24;;;;;;;9.60;5.57;;;;;;;22.21;59.99;98596.88;3583280;40;20041;-65
2021/07/28 09:53:58;;;;;;;7.10;6.10;;;;;;;22.19;58.73;98594.44;3580775;40;20138;-64
2021/07/28 09:56:30;;;;;;;6.25;5.18;;;;;;;22.14;58.91;98602.53;3582123;40;20331;-65
2021/07/28 09:58:59;;;;;;;7.38;5.15;;;;;;;22.10;59.07;98606.00;3581141;40;20048;-64
2021/07/28 10:01:28;;;;;;;7.05;5.47;;;;;;;22.07;59.68;98593.91;3581794;40;20053;-64
2021/07/28 10:03:59;;;;;;;9.10;5.78;;;;;;;22.20;59.48;98595.25;3580716;40;20060;-65
2021/07/28 10:06:31;;;;;;;9.35;5.70;;;;;;;22.44;59.54;98596.25;3582247;40;20103;-65
2021/07/28 10:09:02;;;;;;;6.75;5.00;;;;;;;22.62;58.66;98591.34;3582416;40;20055;-66
2021/07/28 10:11:32;;;;;;;5.47;4.97;;;;;;;22.65;58.03;98598.84;3582713;40;20044;-65
2021/07/28 10:14:01;;;;;;;7.43;4.95;;;;;;;22.55;57.74;98590.84;3582652;40;20041;-66
2021/07/28 10:16:32;;;;;;;8.68;5.28;;;;;;;22.57;57.51;98586.75;3582935;40;20040;-66
2021/07/28 10:19:03;;;;;;;6.32;4.90;;;;;;;22.53;57.42;98592.97;3580690;40;20053;-66
2021/07/28 10:21:43;;;;;;;6.75;5.57;;;;;;;22.49;57.94;98595.41;3579788;40;20041;-65
2021/07/28 10:24:13;;;;;;;7.18;5.30;;;;;;;22.62;57.32;98597.53;3581114;40;20053;-65
2021/07/28 10:26:44;;;;;;;5.80;5.20;;;;;;;22.67;57.23;98589.41;3581175;40;20326;-64
2021/07/28 10:29:16;;;;;;;5.35;4.85;;;;;;;22.56;57.45;98585.16;3580795;40;20049;-64
2021/07/28 10:31:46;;;;;;;5.20;4.70;;;;;;;22.63;57.59;98588.38;3580384;40;20490;-64
2021/07/28 10:34:25;;;;;;;7.15;4.75;;;;;;;22.73;57.51;98587.50;3580861;40;20295;-64
2021/07/28 10:36:54;;;;;;;6.63;4.55;;;;;;;23.13;56.99;98591.09;3581091;40;20060;-64
2021/07/28 10:39:43;;;;;;;6.20;5.30;;;;;;;23.30;56.43;98577.22;3580593;40;20060;-64
2021/07/28 10:42:15;;;;;;;6.72;4.32;;;;;;;23.55;56.14;98578.91;3579823;40;20301;-64
2021/07/28 10:45:06;;;;;;;5.57;4.60;;;;;;;23.82;55.09;98590.03;3580989;40;20112;-64
2021/07/28 10:47:36;;;;;;;5.57;4.95;;;;;;;23.65;54.93;98574.28;3581723;40;20076;-66
2021/07/28 10:50:06;;;;;;;4.50;4.07;;;;;;;23.46;55.46;98576.81;3583469;40;20045;-66
2021/07/28 10:52:39;;;;;;;4.40;4.00;;;;;;;23.31;56.10;98585.03;3583714;40;20041;-66
2021/07/28 10:55:16;;;;;;;6.03;4.03;;;;;;;23.22;57.40;98584.00;3581566;40;20075;-65
2021/07/28 10:58:21;;;;;;;4.80;4.05;;;;;;;23.08;57.14;98581.16;3580911;40;20040;-65
2021/07/28 11:00:50;;;;;;;4.22;3.85;;;;;;;23.15;56.88;98575.44;3582022;40;20053;-66
2021/07/28 11:03:19;;;;;;;5.85;4.38;;;;;;;23.30;56.36;98583.41;3581834;40;20052;-64
2021/07/28 11:05:49;;;;;;;6.65;4.13;;;;;;;23.23;55.30;98583.75;3580802;40;20044;-65
2021/07/28 11:08:21;;;;;;;4.93;3.88;;;;;;;23.09;55.71;98587.34;3580608;40;20067;-65
2021/07/28 11:11:00;;;;;;;5.72;4.65;;;;;;;22.90;56.18;98585.31;3580870;40;20045;-65
2021/07/28 11:13:30;;;;;;;6.07;4.72;;;;;;;22.79;56.78;98581.03;3581517;40;20390;-65
2021/07/28 11:16:00;;;;;;;5.72;4.07;;;;;;;22.57;56.55;98578.69;3581229;40;20052;-65
2021/07/28 11:18:33;;;;;;;5.45;4.15;;;;;;;22.49;57.02;98572.00;3581221;40;20049;-66
2021/07/28 11:21:11;;;;;;;8.47;4.80;;;;;;;22.40;57.42;98579.03;3582455;40;20060;-65
2021/07/28 11:23:42;;;;;;;5.10;3.78;;;;;;;22.41;57.69;98587.91;3580170;40;20569;-65
2021/07/28 11:26:22;;;;;;;4.47;4.00;;;;;;;22.49;57.50;98584.63;3581547;40;20628;-65
2021/07/28 11:28:55;;;;;;;4.40;3.83;;;;;;;22.47;57.42;98582.22;3580569;40;20044;-65
2021/07/28 11:31:24;;;;;;;5.20;3.72;;;;;;;22.41;57.38;98579.81;3581661;40;20036;-65
2021/07/28 11:33:52;;;;;;;6.35;4.78;;;;;;;22.43;57.91;98586.56;3580560;40;20068;-65
2021/07/28 11:36:20;;;;;;;6.13;3.72;;;;;;;22.38;57.81;98586.59;3581195;40;20050;-65
2021/07/28 11:38:48;;;;;;;4.82;4.05;;;;;;;22.48;57.91;98575.75;3580327;40;20049;-65
2021/07/28 11:41:23;;;;;;;3.83;3.20;;;;;;;22.71;57.48;98584.28;3581383;40;20048;-65
2021/07/28 11:43:57;;;;;;;3.78;3.42;;;;;;;22.74;57.16;98578.34;3581366;40;20052;-65